This is the latest recevied weather packets stored in our database for station/object I2HLY-3. If no packets are shown the sender has not sent any weather packets the latest 10 day(s).
| Time | Temp. | Humidity | Pressure | Rain* | Wind** | Luminosity | Snow |
|---|---|---|---|---|---|---|---|
| 1777331848 | 13.33° C | 88% | 1014 hPa | 0 mm | - | - | - |
| 1777330950 | 13.33° C | 87% | 1014 hPa | 0 mm | - | - | - |
| 1777330056 | 13.89° C | 86% | 1014 hPa | 0 mm | - | - | - |
| 1777329137 | 14.44° C | 85% | 1013.9 hPa | 0 mm | - | - | - |
| 1777328238 | 14.44° C | 84% | 1013.9 hPa | 0 mm | - | - | - |
| 1777327342 | 15° C | 83% | 1013.9 hPa | 0 mm | - | - | - |
| 1777326443 | 15° C | 82% | 1013.8 hPa | 0 mm | - | - | - |
| 1777325546 | 15° C | 82% | 1013.8 hPa | 0 mm | - | - | - |
| 1777324650 | 15.56° C | 81% | 1013.7 hPa | 0 mm | - | - | - |
| 1777323752 | 15.56° C | 80% | 1013.7 hPa | 0 mm | - | - | - |
| 1777322853 | 15.56° C | 79% | 1013.7 hPa | 0 mm | - | - | - |
| 1777321938 | 16.11° C | 78% | 1013.6 hPa | 0 mm | - | - | - |
| 1777321040 | 16.11° C | 76% | 1013.6 hPa | 0 mm | - | - | - |
| 1777320141 | 16.67° C | 74% | 1013.5 hPa | 0 mm | - | - | - |
| 1777319245 | 17.22° C | 72% | 1013.5 hPa | 0 mm | - | - | - |
| 1777318347 | 17.78° C | 69% | 1013.4 hPa | 0 mm | - | - | - |
| 1777317448 | 18.33° C | 69% | 1013.3 hPa | 0 mm | - | - | - |
| 1777316550 | 20° C | 61% | 1013.2 hPa | 0 mm | - | - | - |
| 1777315655 | 21.11° C | 52% | 1013 hPa | 0 mm | - | - | - |
| 1777314757 | 22.78° C | 46% | 1012.8 hPa | 0 mm | - | - | - |
| 1777313856 | 23.89° C | 44% | 1012.8 hPa | 0 mm | - | - | - |
| 1777312942 | 24.44° C | 43% | 1012.8 hPa | 0 mm | - | - | - |
| 1777312044 | 24.44° C | 41% | 1012.7 hPa | 0 mm | - | - | - |
| 1777311146 | 25° C | 40% | 1012.6 hPa | 0 mm | - | - | - |
* Rain latest hour (hover to see other rain measurements)
** Current wind speed in m/s (hover to see current wind gust speed)